DENUT EDJA-EDJA
Flight info
| Callsign | DENUT |
|---|---|
| Flight time | 0h 17m |
| Altitude | |
| Route | DCT |
| Aircraft | C400 |
Departure
| Time | 2026-05-07 16:11 |
|---|---|
| Airport | Memmingen Allgau Airport (EDJA) |
Arrival
| Time | 2026-05-07 16:28 |
|---|---|
| Airport | Memmingen Allgau Airport (EDJA) |
| Time | Latitude | Longitude | Altitude | Speed | Heading |
|---|---|---|---|---|---|
| 2026-05-07 16:03 | 47.98627 | 10.23647 | 2073 ft | 0 kts | 329° |
| 2026-05-07 16:07 | 47.98628 | 10.23646 | 2073 ft | 2 kts | 329° |
| 2026-05-07 16:07 | 47.98669 | 10.23674 | 2073 ft | 9 kts | 57° |
| 2026-05-07 16:07 | 47.98701 | 10.23753 | 2071 ft | 9 kts | 61° |
| 2026-05-07 16:08 | 47.98762 | 10.23907 | 2070 ft | 23 kts | 59° |
| 2026-05-07 16:08 | 47.98833 | 10.24085 | 2072 ft | 18 kts | 59° |
| 2026-05-07 16:08 | 47.98895 | 10.24241 | 2069 ft | 17 kts | 56° |
| 2026-05-07 16:08 | 47.98950 | 10.24381 | 2067 ft | 15 kts | 59° |
| 2026-05-07 16:09 | 47.99000 | 10.24509 | 2065 ft | 13 kts | 59° |
| 2026-05-07 16:09 | 47.99063 | 10.24666 | 2063 ft | 29 kts | 56° |
| 2026-05-07 16:09 | 47.99161 | 10.24908 | 2060 ft | 11 kts | 45° |
| 2026-05-07 16:09 | 47.99190 | 10.24919 | 2060 ft | 0 kts | 338° |
| 2026-05-07 16:10 | 47.99205 | 10.24907 | 2061 ft | 11 kts | 330° |
| 2026-05-07 16:10 | 47.99224 | 10.24814 | 2062 ft | 0 kts | 237° |
| 2026-05-07 16:10 | 47.99222 | 10.24809 | 2062 ft | 4 kts | 239° |
| 2026-05-07 16:11 | 47.99100 | 10.24492 | 2063 ft | 65 kts | 238° |
| 2026-05-07 16:11 | 47.98776 | 10.23722 | 2129 ft | 102 kts | 244° |
| 2026-05-07 16:11 | 47.98395 | 10.22774 | 2403 ft | 107 kts | 243° |
| 2026-05-07 16:11 | 47.97965 | 10.21754 | 2688 ft | 126 kts | 240° |
| 2026-05-07 16:12 | 47.97445 | 10.20626 | 3061 ft | 135 kts | 238° |
| 2026-05-07 16:12 | 47.96898 | 10.19452 | 3365 ft | 146 kts | 237° |
| 2026-05-07 16:12 | 47.96260 | 10.18164 | 3464 ft | 164 kts | 229° |
| 2026-05-07 16:12 | 47.95204 | 10.17605 | 3548 ft | 164 kts | 172° |
| 2026-05-07 16:13 | 47.94162 | 10.18016 | 3579 ft | 154 kts | 166° |
| 2026-05-07 16:13 | 47.93360 | 10.18982 | 3459 ft | 157 kts | 108° |
| 2026-05-07 16:13 | 47.93537 | 10.20511 | 3338 ft | 152 kts | 61° |
| 2026-05-07 16:13 | 47.94036 | 10.21885 | 3257 ft | 150 kts | 56° |
| 2026-05-07 16:14 | 47.94597 | 10.23209 | 3222 ft | 151 kts | 53° |
| 2026-05-07 16:14 | 47.95171 | 10.24520 | 3167 ft | 152 kts | 53° |
| 2026-05-07 16:14 | 47.95759 | 10.25820 | 3164 ft | 153 kts | 51° |
| 2026-05-07 16:14 | 47.96288 | 10.27167 | 3237 ft | 148 kts | 58° |
| 2026-05-07 16:15 | 47.96764 | 10.28487 | 3225 ft | 144 kts | 58° |
| 2026-05-07 16:15 | 47.97263 | 10.29756 | 3214 ft | 132 kts | 43° |
| 2026-05-07 16:15 | 47.97963 | 10.30165 | 3304 ft | 93 kts | 347° |
| 2026-05-07 16:15 | 47.98557 | 10.29811 | 3288 ft | 91 kts | 325° |
| 2026-05-07 16:16 | 47.99063 | 10.29289 | 3223 ft | 86 kts | 321° |
| 2026-05-07 16:16 | 47.99541 | 10.28731 | 2984 ft | 87 kts | 314° |
| 2026-05-07 16:16 | 47.99855 | 10.27979 | 2675 ft | 88 kts | 289° |
| 2026-05-07 16:16 | 47.99953 | 10.27076 | 2465 ft | 93 kts | 275° |
| 2026-05-07 16:17 | 47.99757 | 10.26143 | 2296 ft | 91 kts | 248° |
| 2026-05-07 16:17 | 47.99426 | 10.25351 | 2073 ft | 88 kts | 246° |
| 2026-05-07 16:17 | 47.99123 | 10.24604 | 2062 ft | 78 kts | 248° |
| 2026-05-07 16:17 | 47.98850 | 10.23882 | 2089 ft | 85 kts | 242° |
| 2026-05-07 16:18 | 47.98561 | 10.23126 | 2167 ft | 90 kts | 244° |
| 2026-05-07 16:18 | 47.98188 | 10.22172 | 2283 ft | 115 kts | 248° |
| 2026-05-07 16:18 | 47.97780 | 10.21088 | 2518 ft | 128 kts | 243° |
| 2026-05-07 16:18 | 47.97288 | 10.19885 | 2740 ft | 142 kts | 242° |
| 2026-05-07 16:19 | 47.96761 | 10.18576 | 2963 ft | 153 kts | 244° |
| 2026-05-07 16:19 | 47.96185 | 10.17057 | 2859 ft | 178 kts | 243° |
| 2026-05-07 16:19 | 47.95586 | 10.15462 | 3011 ft | 173 kts | 243° |
| 2026-05-07 16:19 | 47.94838 | 10.14183 | 3247 ft | 163 kts | 208° |
| 2026-05-07 16:20 | 47.93716 | 10.14087 | 3310 ft | 169 kts | 165° |
| 2026-05-07 16:20 | 47.92611 | 10.14748 | 3317 ft | 173 kts | 154° |
| 2026-05-07 16:20 | 47.91714 | 10.15917 | 3313 ft | 174 kts | 118° |
| 2026-05-07 16:20 | 47.91584 | 10.17661 | 3310 ft | 173 kts | 72° |
| 2026-05-07 16:21 | 47.92092 | 10.19261 | 3324 ft | 170 kts | 61° |
| 2026-05-07 16:21 | 47.92641 | 10.20788 | 3326 ft | 169 kts | 60° |
| 2026-05-07 16:21 | 47.93193 | 10.22336 | 3322 ft | 169 kts | 59° |
| 2026-05-07 16:21 | 47.93738 | 10.23898 | 3321 ft | 169 kts | 58° |
| 2026-05-07 16:22 | 47.94296 | 10.25451 | 3320 ft | 170 kts | 59° |
| 2026-05-07 16:22 | 47.94849 | 10.26974 | 3313 ft | 160 kts | 59° |
| 2026-05-07 16:22 | 47.95350 | 10.28383 | 3312 ft | 149 kts | 58° |
| 2026-05-07 16:22 | 47.95816 | 10.29726 | 3313 ft | 143 kts | 59° |
| 2026-05-07 16:23 | 47.96268 | 10.31018 | 3312 ft | 139 kts | 59° |
| 2026-05-07 16:23 | 47.96736 | 10.32272 | 3314 ft | 140 kts | 55° |
| 2026-05-07 16:23 | 47.97252 | 10.33583 | 3335 ft | 152 kts | 57° |
| 2026-05-07 16:23 | 47.97788 | 10.34967 | 3328 ft | 155 kts | 57° |
| 2026-05-07 16:24 | 47.98397 | 10.36261 | 3324 ft | 147 kts | 33° |
| 2026-05-07 16:24 | 47.99214 | 10.36447 | 3306 ft | 112 kts | 333° |
| 2026-05-07 16:24 | 47.99841 | 10.35829 | 3308 ft | 103 kts | 326° |
| 2026-05-07 16:24 | 48.00405 | 10.35266 | 3287 ft | 92 kts | 324° |
| 2026-05-07 16:25 | 48.00900 | 10.34783 | 3259 ft | 85 kts | 324° |
| 2026-05-07 16:25 | 48.01408 | 10.34287 | 3158 ft | 89 kts | 324° |
| 2026-05-07 16:25 | 48.01933 | 10.33764 | 3063 ft | 92 kts | 325° |
| 2026-05-07 16:25 | 48.02414 | 10.33136 | 2957 ft | 96 kts | 293° |
| 2026-05-07 16:26 | 48.02228 | 10.32233 | 2914 ft | 93 kts | 236° |
| 2026-05-07 16:26 | 48.01918 | 10.31512 | 2922 ft | 78 kts | 243° |
| 2026-05-07 16:26 | 48.01629 | 10.30819 | 2919 ft | 79 kts | 244° |
| 2026-05-07 16:26 | 48.01435 | 10.30346 | 2874 ft | 83 kts | 245° |
| 2026-05-07 16:27 | 48.01039 | 10.29392 | 2713 ft | 76 kts | 246° |
| 2026-05-07 16:27 | 48.00751 | 10.28659 | 2613 ft | 88 kts | 246° |
| 2026-05-07 16:27 | 48.00434 | 10.27856 | 2488 ft | 90 kts | 245° |
| 2026-05-07 16:27 | 48.00125 | 10.27077 | 2369 ft | 84 kts | 244° |
| 2026-05-07 16:28 | 47.99830 | 10.26345 | 2257 ft | 81 kts | 245° |
| 2026-05-07 16:28 | 47.99545 | 10.25626 | 2149 ft | 80 kts | 244° |
| 2026-05-07 16:28 | 47.99265 | 10.24927 | 2067 ft | 74 kts | 244° |
| 2026-05-07 16:28 | 47.99053 | 10.24381 | 2063 ft | 49 kts | 238° |
| 2026-05-07 16:29 | 47.98904 | 10.24012 | 2067 ft | 35 kts | 241° |
| 2026-05-07 16:29 | 47.98810 | 10.23799 | 2072 ft | 14 kts | 189° |
| 2026-05-07 16:29 | 47.98741 | 10.23832 | 2070 ft | 13 kts | 201° |
| 2026-05-07 16:29 | 47.98696 | 10.23744 | 2071 ft | 10 kts | 239° |
| 2026-05-07 16:30 | 47.98651 | 10.23635 | 2073 ft | 2 kts | 235° |
| 2026-05-07 16:30 | 47.98630 | 10.23617 | 2073 ft | 12 kts | 187° |
| 2026-05-07 16:30 | 47.98634 | 10.23670 | 2072 ft | 1 kts | 326° |
| 2026-05-07 16:30 | 47.98635 | 10.23669 | 2072 ft | 0 kts | 328° |